createdAt,value
2019-03-17T00:02:27.859Z,3.50
2019-03-17T00:04:57.316Z,3.60
2019-03-17T00:07:26.763Z,3.50
2019-03-17T00:09:56.188Z,3.50
2019-03-17T00:12:25.629Z,3.50
2019-03-17T00:15:04.747Z,3.50
2019-03-17T00:17:26.183Z,3.40
2019-03-17T00:19:55.617Z,3.40
2019-03-17T00:22:25.087Z,3.40
2019-03-17T00:24:54.487Z,3.40
2019-03-17T00:27:23.908Z,3.40
2019-03-17T00:29:53.369Z,3.40
2019-03-17T00:32:22.849Z,3.50
2019-03-17T00:34:52.327Z,3.50
2019-03-17T00:37:21.735Z,3.50
2019-03-17T00:39:51.290Z,3.50
2019-03-17T00:42:20.742Z,3.40
2019-03-17T00:44:50.132Z,3.40
2019-03-17T00:47:19.557Z,3.30
2019-03-17T00:49:49.074Z,3.30
2019-03-17T00:52:18.395Z,3.30
2019-03-17T00:54:47.992Z,3.20
2019-03-17T00:57:17.325Z,3.20
2019-03-17T00:59:46.756Z,3.20
2019-03-17T01:02:16.271Z,3.20
2019-03-17T01:04:55.778Z,3.10
2019-03-17T01:07:16.739Z,3.10
2019-03-17T01:09:46.202Z,3.00
2019-03-17T01:12:15.593Z,3.00
2019-03-17T01:14:45.016Z,3.00
2019-03-17T01:17:14.533Z,3.00
2019-03-17T01:19:43.922Z,3.00
2019-03-17T01:22:13.395Z,3.00
2019-03-17T01:24:42.807Z,3.00
2019-03-17T01:27:12.244Z,3.00
2019-03-17T01:29:41.689Z,3.00
2019-03-17T01:32:11.103Z,3.00
2019-03-17T01:34:40.537Z,3.00
2019-03-17T01:37:09.927Z,3.00
2019-03-17T01:39:39.354Z,3.10
2019-03-17T01:42:08.698Z,3.10
2019-03-17T01:44:38.095Z,3.20
2019-03-17T01:47:07.449Z,3.20
2019-03-17T01:49:36.851Z,3.20
2019-03-17T01:52:06.292Z,3.20
2019-03-17T01:54:35.720Z,3.20
2019-03-17T01:57:05.212Z,3.20
2019-03-17T01:59:34.700Z,3.30
2019-03-17T02:02:04.133Z,3.40
2019-03-17T02:04:33.526Z,3.40
2019-03-17T02:07:02.965Z,3.40
2019-03-17T02:09:32.367Z,3.50
2019-03-17T02:12:01.804Z,3.60
2019-03-17T02:14:31.226Z,3.60
2019-03-17T02:17:00.661Z,3.60
2019-03-17T02:19:30.094Z,3.60
2019-03-17T02:21:59.500Z,3.60
2019-03-17T02:24:28.923Z,3.60
2019-03-17T02:26:58.332Z,3.60
2019-03-17T02:29:27.786Z,3.60
2019-03-17T02:31:57.193Z,3.60
2019-03-17T02:34:26.633Z,3.60
2019-03-17T02:36:56.059Z,3.60
2019-03-17T02:39:26.348Z,3.60
2019-03-17T02:41:56.011Z,3.60
2019-03-17T02:44:25.462Z,3.60
2019-03-17T02:46:54.837Z,3.60
2019-03-17T02:49:24.303Z,3.70
2019-03-17T02:51:53.694Z,3.70
2019-03-17T02:54:23.130Z,3.60
2019-03-17T02:56:52.595Z,3.70
2019-03-17T02:59:21.999Z,3.60
2019-03-17T03:01:51.501Z,3.70
2019-03-17T03:04:20.857Z,3.80
2019-03-17T03:06:50.296Z,3.80
2019-03-17T03:09:19.716Z,3.80
2019-03-17T03:11:49.150Z,3.80
2019-03-17T03:14:18.654Z,3.80
2019-03-17T03:16:48.056Z,3.80
2019-03-17T03:19:17.436Z,3.80
2019-03-17T03:21:46.873Z,3.80
2019-03-17T03:24:16.292Z,3.90
2019-03-17T03:26:45.781Z,3.90
2019-03-17T03:29:15.212Z,3.90
2019-03-17T03:31:44.615Z,3.90
2019-03-17T03:34:14.090Z,3.90
2019-03-17T03:36:43.473Z,4.00
2019-03-17T03:39:12.938Z,4.00
2019-03-17T03:41:42.454Z,4.00
2019-03-17T03:44:11.817Z,4.00
2019-03-17T03:46:41.273Z,4.00
2019-03-17T03:49:10.695Z,4.10
2019-03-17T03:51:40.120Z,4.00
2019-03-17T03:54:09.533Z,4.00
2019-03-17T03:56:38.960Z,4.00
2019-03-17T03:59:08.403Z,4.10
2019-03-17T04:01:37.836Z,4.10
2019-03-17T04:04:07.362Z,4.10
2019-03-17T04:06:36.803Z,4.10
2019-03-17T04:09:07.870Z,4.20
2019-03-17T04:11:37.278Z,4.10
2019-03-17T04:14:06.720Z,4.10
2019-03-17T04:16:36.126Z,4.10
2019-03-17T04:19:05.568Z,4.20
2019-03-17T04:21:34.996Z,4.20
2019-03-17T04:24:04.438Z,4.20
2019-03-17T04:26:33.847Z,4.20
2019-03-17T04:29:03.231Z,4.30
2019-03-17T04:31:32.683Z,4.30
2019-03-17T04:34:02.190Z,4.50
2019-03-17T04:36:40.001Z,4.40
2019-03-17T04:39:02.738Z,4.40
2019-03-17T04:41:32.142Z,4.50
2019-03-17T04:44:01.558Z,4.40
2019-03-17T04:46:30.969Z,4.50
2019-03-17T04:49:00.425Z,4.50
2019-03-17T04:51:30.134Z,4.50
2019-03-17T04:53:59.579Z,4.50
2019-03-17T04:56:28.944Z,4.50
2019-03-17T04:58:58.436Z,4.60
2019-03-17T05:01:27.871Z,4.60
2019-03-17T05:03:57.339Z,4.60
2019-03-17T05:06:26.904Z,4.60
2019-03-17T05:08:56.336Z,4.70
2019-03-17T05:11:25.759Z,4.70
2019-03-17T05:13:55.197Z,4.70
2019-03-17T05:16:24.676Z,4.70
2019-03-17T05:18:54.142Z,4.80
2019-03-17T05:21:23.591Z,4.80
2019-03-17T05:23:53.059Z,4.90
2019-03-17T05:26:22.557Z,4.90
2019-03-17T05:28:52.010Z,4.90
2019-03-17T05:31:21.452Z,5.00
2019-03-17T05:33:50.907Z,5.00
2019-03-17T05:36:20.314Z,5.10
2019-03-17T05:38:49.707Z,5.10
2019-03-17T05:41:19.203Z,5.30
2019-03-17T05:43:48.630Z,5.30
2019-03-17T05:46:18.120Z,5.30
2019-03-17T05:48:47.552Z,5.50
2019-03-17T05:51:17.159Z,5.50
2019-03-17T05:53:46.598Z,5.50
2019-03-17T05:56:16.060Z,5.60
2019-03-17T05:58:45.644Z,5.60
2019-03-17T06:01:15.148Z,5.60
2019-03-17T06:03:44.580Z,5.60
2019-03-17T06:06:14.172Z,5.70
2019-03-17T06:08:43.647Z,5.80
2019-03-17T06:11:13.115Z,5.80
2019-03-17T06:13:42.764Z,5.90
2019-03-17T06:16:12.300Z,5.90
2019-03-17T06:18:41.708Z,5.80
2019-03-17T06:21:11.148Z,5.90
2019-03-17T06:23:40.564Z,5.90
2019-03-17T06:26:10.055Z,6.00
2019-03-17T06:28:39.472Z,6.20
2019-03-17T06:31:08.982Z,6.20
2019-03-17T06:33:38.460Z,6.30
2019-03-17T06:36:07.898Z,6.20
2019-03-17T06:38:37.553Z,6.20
2019-03-17T06:41:06.992Z,6.30
2019-03-17T06:43:36.395Z,6.40
2019-03-17T06:46:05.866Z,6.30
2019-03-17T06:48:35.338Z,6.40
2019-03-17T06:51:04.712Z,6.40
2019-03-17T06:53:34.200Z,6.50
2019-03-17T06:56:03.643Z,6.50
2019-03-17T06:58:33.042Z,6.60
2019-03-17T07:01:02.522Z,6.70
2019-03-17T07:03:31.991Z,6.80
2019-03-17T07:06:01.439Z,6.90
2019-03-17T07:08:30.893Z,7.00
2019-03-17T07:11:00.320Z,7.20
2019-03-17T08:57:51.184Z,11.80
2019-03-17T09:00:20.724Z,11.80
2019-03-17T09:17:44.135Z,12.30
2019-03-17T09:20:13.670Z,12.10
2019-03-17T10:42:00.488Z,14.40
2019-03-17T10:44:29.911Z,15.00
2019-03-17T10:47:00.015Z,15.90
2019-03-17T10:49:29.531Z,17.50
2019-03-17T10:51:59.627Z,16.50
2019-03-17T11:01:57.412Z,14.70
2019-03-17T11:04:26.871Z,15.30
2019-03-17T11:06:56.392Z,15.20
2019-03-17T11:09:25.935Z,17.00
2019-03-17T11:11:55.310Z,16.70
2019-03-17T11:24:22.449Z,15.00
2019-03-17T11:26:51.928Z,15.90
2019-03-17T11:29:21.426Z,17.20
2019-03-17T11:31:50.867Z,18.20
2019-03-17T11:34:20.321Z,17.40
2019-03-17T11:36:49.975Z,18.30
2019-03-17T11:39:19.592Z,18.60
2019-03-17T11:41:49.031Z,17.90
2019-03-17T11:44:18.881Z,17.70
2019-03-17T11:46:48.357Z,17.90
2019-03-17T11:49:18.166Z,19.30
2019-03-17T11:51:47.644Z,18.70
2019-03-17T11:54:17.194Z,18.20
2019-03-17T11:56:46.856Z,18.80
2019-03-17T11:59:16.374Z,18.70
2019-03-17T12:06:43.681Z,19.10
2019-03-17T12:11:42.095Z,18.70
2019-03-17T12:14:11.545Z,18.40
2019-03-17T12:19:09.948Z,19.00
2019-03-17T12:21:39.431Z,19.50
2019-03-17T12:24:08.904Z,19.10
2019-03-17T12:29:07.861Z,18.80
2019-03-17T12:41:34.781Z,20.10
2019-03-17T12:46:33.276Z,20.80
2019-03-17T12:49:02.738Z,20.50
2019-03-17T12:51:32.277Z,21.10
2019-03-17T12:54:01.670Z,21.20
2019-03-17T13:01:28.936Z,20.80
2019-03-17T13:11:25.337Z,20.90
2019-03-17T13:13:54.947Z,22.90
2019-03-17T13:16:24.437Z,22.10
2019-03-17T13:18:54.016Z,22.90
2019-03-17T13:21:24.005Z,22.70
2019-03-17T13:38:48.055Z,19.20
2019-03-17T13:51:13.329Z,20.40
2019-03-17T13:53:42.728Z,19.50
2019-03-17T13:58:41.074Z,20.00
2019-03-17T14:03:39.511Z,18.40
2019-03-17T14:06:09.415Z,18.60
2019-03-17T14:11:07.945Z,18.30
2019-03-17T14:13:37.495Z,18.60
2019-03-17T14:18:35.865Z,18.60
2019-03-17T14:21:05.443Z,18.70
2019-03-17T14:23:34.943Z,19.00
2019-03-17T14:40:58.760Z,19.40
2019-03-17T14:43:28.342Z,18.70
2019-03-17T14:45:57.937Z,18.30
2019-03-17T14:48:27.388Z,18.10
2019-03-17T15:10:28.930Z,19.80
2019-03-17T15:12:58.413Z,19.00
2019-03-17T15:15:27.913Z,19.50
2019-03-17T15:17:57.519Z,19.80
2019-03-17T15:22:56.028Z,20.30
2019-03-17T15:25:25.475Z,20.30
2019-03-17T15:30:25.640Z,20.20
2019-03-17T15:32:55.062Z,19.40
2019-03-17T15:35:24.552Z,19.00
2019-03-17T15:37:54.224Z,18.70
2019-03-17T15:40:23.826Z,18.40
2019-03-17T15:42:55.696Z,18.70
2019-03-17T15:45:25.370Z,18.10
2019-03-17T15:50:23.720Z,17.70
2019-03-17T15:55:21.974Z,16.90
2019-03-17T15:57:51.436Z,16.70
2019-03-17T16:00:25.649Z,16.60
2019-03-17T16:02:53.426Z,16.40
2019-03-17T16:05:22.890Z,16.40
2019-03-17T16:07:52.329Z,16.30
2019-03-17T16:10:22.024Z,16.20
2019-03-17T16:12:51.556Z,16.00
2019-03-17T16:15:21.121Z,15.80
2019-03-17T16:17:50.641Z,15.60
2019-03-17T16:20:20.742Z,15.50
2019-03-17T16:22:50.185Z,15.40
2019-03-17T16:25:19.729Z,15.20
2019-03-17T16:27:49.575Z,15.00
2019-03-17T16:30:20.704Z,14.80
2019-03-17T16:32:50.150Z,14.70
2019-03-17T16:35:19.599Z,14.60
2019-03-17T16:37:49.226Z,14.30
2019-03-17T16:40:20.611Z,14.00
2019-03-17T16:42:50.053Z,13.70
2019-03-17T16:45:20.136Z,13.50
2019-03-17T16:47:49.606Z,13.30
2019-03-17T16:50:19.437Z,13.10
2019-03-17T16:52:48.893Z,12.90
2019-03-17T16:55:18.741Z,12.70
2019-03-17T16:57:48.271Z,12.50
2019-03-17T17:00:19.430Z,12.30
2019-03-17T17:02:49.397Z,12.20
2019-03-17T17:05:19.009Z,11.90
2019-03-17T17:07:48.714Z,11.80
2019-03-17T17:10:18.864Z,11.60
2019-03-17T17:12:48.374Z,11.50
2019-03-17T17:15:19.789Z,11.40
2019-03-17T17:17:49.753Z,11.40
2019-03-17T17:20:24.754Z,11.30
2019-03-17T17:22:54.687Z,11.20
2019-03-17T17:25:24.195Z,11.10
2019-03-17T17:27:53.747Z,10.90
2019-03-17T17:30:23.339Z,10.70
2019-03-17T17:32:52.855Z,10.50
2019-03-17T17:35:22.351Z,10.40
2019-03-17T17:37:52.005Z,10.20
2019-03-17T17:40:21.613Z,10.10
2019-03-17T17:42:51.102Z,10.00
2019-03-17T17:45:20.714Z,10.00
2019-03-17T17:47:50.188Z,9.80
2019-03-17T17:50:19.925Z,9.70
2019-03-17T17:52:49.439Z,9.70
2019-03-17T17:55:18.871Z,9.60
2019-03-17T17:57:48.638Z,9.50
2019-03-17T18:00:20.424Z,9.40
2019-03-17T18:02:50.131Z,9.30
2019-03-17T18:05:19.577Z,9.20
2019-03-17T18:07:49.079Z,9.20
2019-03-17T18:10:18.785Z,9.10
2019-03-17T18:12:48.362Z,8.90
2019-03-17T18:15:20.532Z,8.90
2019-03-17T18:17:50.162Z,8.90
2019-03-17T18:20:19.698Z,8.80
2019-03-17T18:22:49.497Z,8.80
2019-03-17T18:25:19.184Z,8.80
2019-03-17T18:27:48.755Z,8.90
2019-03-17T18:30:18.613Z,8.90
2019-03-17T18:32:48.066Z,8.90
2019-03-17T18:35:17.979Z,8.80
2019-03-17T18:37:47.447Z,8.70
2019-03-17T18:40:17.028Z,8.60
2019-03-17T18:42:46.512Z,8.50
2019-03-17T18:45:17.672Z,8.40
2019-03-17T18:47:47.186Z,8.40
2019-03-17T18:50:20.611Z,8.40
2019-03-17T18:52:48.149Z,8.40
2019-03-17T18:55:17.913Z,8.30
2019-03-17T18:57:50.068Z,8.20
2019-03-17T19:00:20.138Z,8.10
2019-03-17T19:02:49.744Z,8.10
2019-03-17T19:05:20.246Z,8.10
2019-03-17T19:07:50.019Z,8.00
2019-03-17T19:10:19.903Z,8.00
2019-03-17T19:12:49.977Z,7.90
2019-03-17T19:15:19.949Z,7.80
2019-03-17T19:17:49.401Z,7.80
2019-03-17T19:20:18.905Z,7.80
2019-03-17T19:22:48.507Z,7.80
2019-03-17T19:25:18.001Z,7.80
2019-03-17T19:27:47.456Z,7.70
2019-03-17T19:30:18.047Z,7.50
2019-03-17T19:32:47.679Z,7.30
2019-03-17T19:35:17.337Z,7.30
2019-03-17T19:37:46.936Z,7.30
2019-03-17T19:40:16.422Z,7.40
2019-03-17T19:42:58.011Z,7.40
2019-03-17T19:45:17.534Z,7.30
2019-03-17T19:47:46.981Z,7.10
2019-03-17T19:50:16.428Z,7.00
2019-03-17T19:52:46.315Z,6.90
2019-03-17T19:55:15.728Z,6.70
2019-03-17T19:57:46.369Z,6.70
2019-03-17T20:00:16.272Z,6.50
2019-03-17T20:02:47.803Z,6.50
2019-03-17T20:05:17.116Z,6.40
2019-03-17T20:07:46.498Z,6.40
2019-03-17T20:10:18.881Z,6.40
2019-03-17T20:12:48.533Z,6.40
2019-03-17T20:15:18.226Z,6.30
2019-03-17T20:17:48.109Z,6.30
2019-03-17T20:20:18.130Z,6.20
2019-03-17T20:22:47.803Z,6.40
2019-03-17T20:25:17.468Z,6.40
2019-03-17T20:27:46.918Z,6.40
2019-03-17T20:30:16.579Z,6.40
2019-03-17T20:32:46.231Z,6.40
2019-03-17T20:35:15.716Z,6.30
2019-03-17T20:37:45.464Z,6.30
2019-03-17T20:40:14.929Z,6.20
2019-03-17T20:42:44.406Z,6.20
2019-03-17T20:45:14.135Z,6.20
2019-03-17T20:47:43.632Z,6.10
2019-03-17T20:50:13.119Z,6.00
2019-03-17T20:52:42.726Z,6.00
2019-03-17T20:55:12.906Z,5.90
2019-03-17T20:57:42.361Z,5.80
2019-03-17T21:00:13.799Z,5.70
2019-03-17T21:02:43.294Z,5.70
2019-03-17T21:05:13.081Z,5.60
2019-03-17T21:07:44.405Z,5.50
2019-03-17T21:10:13.886Z,5.50
2019-03-17T21:12:43.492Z,5.60
2019-03-17T21:15:13.034Z,5.70
2019-03-17T21:17:42.514Z,5.70
2019-03-17T21:20:13.646Z,5.80
2019-03-17T21:22:43.568Z,5.80
2019-03-17T21:25:13.223Z,5.80
2019-03-17T21:27:43.988Z,5.80
2019-03-17T21:30:17.158Z,5.90
2019-03-17T21:32:47.950Z,5.90
2019-03-17T21:35:17.396Z,6.10
2019-03-17T21:37:46.878Z,6.20
2019-03-17T21:40:16.785Z,6.30
2019-03-17T21:42:46.252Z,6.40
2019-03-17T21:45:15.727Z,6.50
2019-03-17T21:47:47.542Z,6.50
2019-03-17T21:50:18.338Z,6.60
2019-03-17T21:52:47.753Z,6.60
2019-03-17T21:55:17.371Z,6.60
2019-03-17T21:57:47.016Z,6.60
2019-03-17T22:00:16.767Z,6.50
2019-03-17T22:02:46.483Z,6.40
2019-03-17T22:05:16.153Z,6.50
2019-03-17T22:07:50.385Z,6.50
2019-03-17T22:10:17.226Z,6.50
2019-03-17T22:12:49.030Z,6.60
2019-03-17T22:15:18.725Z,6.50
2019-03-17T22:17:48.210Z,6.40
2019-03-17T22:20:17.916Z,6.40
2019-03-17T22:22:47.448Z,6.50
2019-03-17T22:25:17.356Z,6.30
2019-03-17T22:27:46.894Z,6.40
2019-03-17T22:30:16.414Z,8.70
2019-03-17T22:35:15.284Z,9.60
2019-03-17T22:37:45.135Z,9.70
2019-03-17T22:40:15.032Z,9.60
2019-03-17T22:42:44.770Z,9.50
2019-03-17T22:45:14.983Z,9.40
2019-03-17T22:50:13.543Z,9.10
2019-03-17T22:55:12.381Z,8.80
2019-03-17T23:00:13.561Z,8.50
2019-03-17T23:02:43.861Z,8.40
2019-03-17T23:05:14.575Z,8.30
2019-03-17T23:07:44.262Z,8.30
2019-03-17T23:10:14.048Z,8.10
2019-03-17T23:12:43.968Z,8.10
2019-03-17T23:15:13.838Z,8.00
2019-03-17T23:17:43.859Z,8.00
2019-03-17T23:20:14.241Z,7.90
2019-03-17T23:22:44.045Z,7.90
2019-03-17T23:25:13.898Z,7.90
2019-03-17T23:27:43.497Z,7.90
2019-03-17T23:30:13.469Z,7.80
2019-03-17T23:32:43.176Z,7.80
2019-03-17T23:35:13.224Z,7.90
2019-03-17T23:37:43.163Z,7.90
2019-03-17T23:40:12.947Z,7.80
2019-03-17T23:42:42.688Z,7.80
2019-03-17T23:45:12.501Z,7.80
2019-03-17T23:47:42.268Z,7.80
2019-03-17T23:50:12.370Z,7.70
2019-03-17T23:52:42.551Z,7.70
2019-03-17T23:55:12.548Z,7.80
2019-03-17T23:57:42.699Z,7.80
